createdAt,value
2023-04-09T00:01:13.851Z,100018.28
2023-04-09T00:03:41.114Z,100016.66
2023-04-09T00:06:08.664Z,100015.63
2023-04-09T00:08:35.905Z,100016.47
2023-04-09T00:11:03.622Z,100014.00
2023-04-09T00:13:39.307Z,100021.97
2023-04-09T00:16:08.473Z,100022.31
2023-04-09T00:18:36.175Z,100019.00
2023-04-09T00:21:03.621Z,100019.84
2023-04-09T00:23:31.024Z,100030.25
2023-04-09T00:25:58.427Z,100025.94
2023-04-09T00:28:25.569Z,100024.31
2023-04-09T00:30:53.044Z,100029.78
2023-04-09T00:33:20.269Z,100029.63
2023-04-09T00:35:47.664Z,100017.34
2023-04-09T00:38:14.863Z,100028.97
2023-04-09T00:40:42.422Z,100025.81
2023-04-09T00:43:09.715Z,100022.19
2023-04-09T00:45:38.030Z,100026.03
2023-04-09T00:48:05.587Z,100015.56
2023-04-09T00:50:32.956Z,100021.69
2023-04-09T00:53:01.202Z,100014.72
2023-04-09T00:55:29.805Z,100025.34
2023-04-09T00:57:56.945Z,100024.53
2023-04-09T01:00:24.554Z,100022.03
2023-04-09T01:02:53.212Z,100021.22
2023-04-09T01:05:20.879Z,100022.88
2023-04-09T01:08:18.011Z,100023.72
2023-04-09T01:11:19.328Z,100017.75
2023-04-09T01:14:02.256Z,100011.44
2023-04-09T01:16:32.649Z,100017.75
2023-04-09T01:20:11.077Z,100017.09
2023-04-09T01:23:25.815Z,100017.09
2023-04-09T01:26:24.994Z,100020.41
2023-04-09T01:28:57.516Z,100022.38
2023-04-09T01:31:32.209Z,100024.41
2023-04-09T01:34:02.107Z,100018.63
2023-04-09T01:36:32.291Z,100016.81
2023-04-09T01:39:03.628Z,100018.00
2023-04-09T01:41:34.157Z,100012.84
2023-04-09T01:44:05.717Z,100018.16
2023-04-09T01:46:34.987Z,100016.50
2023-04-09T01:49:03.168Z,100021.00
2023-04-09T01:51:31.638Z,100013.19
2023-04-09T01:54:03.300Z,100018.03
2023-04-09T01:56:44.668Z,100016.22
2023-04-09T01:59:13.588Z,100019.84
2023-04-09T02:01:53.318Z,100024.50
2023-04-09T02:04:49.210Z,100013.91
2023-04-09T02:07:40.548Z,100022.84
2023-04-09T02:10:11.960Z,100028.50
2023-04-09T02:12:45.574Z,100026.84
2023-04-09T02:15:14.349Z,100023.56
2023-04-09T02:17:41.513Z,100023.91
2023-04-09T02:20:09.694Z,100030.19
2023-04-09T02:22:36.812Z,100018.59
2023-04-09T02:25:04.815Z,100030.84
2023-04-09T02:27:31.855Z,100022.22
2023-04-09T02:29:59.228Z,100033.84
2023-04-09T02:32:26.543Z,100030.88
2023-04-09T02:34:54.000Z,100028.25
2023-04-09T02:37:21.283Z,100028.41
2023-04-09T02:39:48.644Z,100038.19
2023-04-09T02:42:15.751Z,100035.53
2023-04-09T02:44:44.273Z,100034.38
2023-04-09T02:47:13.067Z,100033.69
2023-04-09T02:49:40.505Z,100022.44
2023-04-09T02:52:09.545Z,100026.91
2023-04-09T02:54:36.906Z,100032.59
2023-04-09T02:57:04.067Z,100028.91
2023-04-09T02:59:32.975Z,100026.25
2023-04-09T03:02:00.341Z,100031.56
2023-04-09T03:04:27.822Z,100011.38
2023-04-09T03:06:55.016Z,100016.69
2023-04-09T03:09:22.358Z,100028.91
2023-04-09T03:11:49.401Z,100022.81
2023-04-09T03:14:16.872Z,100021.97
2023-04-09T03:16:44.866Z,100027.28
2023-04-09T03:19:12.300Z,100023.16
2023-04-09T03:21:39.417Z,100021.34
2023-04-09T03:24:07.236Z,100027.63
2023-04-09T03:26:37.971Z,100027.28
2023-04-09T03:29:07.290Z,100029.09
2023-04-09T03:31:34.489Z,100029.09
2023-04-09T03:34:03.141Z,100030.91
2023-04-09T03:36:33.015Z,100024.00
2023-04-09T03:39:05.042Z,100017.03
2023-04-09T03:41:38.351Z,100019.66
2023-04-09T03:44:12.300Z,100014.38
2023-04-09T03:46:57.022Z,100025.97
2023-04-09T03:49:25.860Z,100025.97
2023-04-09T03:51:56.583Z,100028.59
2023-04-09T03:54:30.486Z,100031.25
2023-04-09T03:56:59.090Z,100031.25
2023-04-09T03:59:26.474Z,100033.25
2023-04-09T04:01:53.797Z,100033.25
2023-04-09T04:04:23.571Z,100034.91
2023-04-09T04:06:55.443Z,100033.25
2023-04-09T04:09:29.940Z,100029.13
2023-04-09T04:12:04.999Z,100037.25
2023-04-09T04:14:47.763Z,100036.25
2023-04-09T04:17:24.837Z,100038.88
2023-04-09T04:19:53.135Z,100038.88
2023-04-09T04:22:20.788Z,100038.09
2023-04-09T04:24:52.302Z,100043.38
2023-04-09T04:27:21.905Z,100041.53
2023-04-09T04:29:49.339Z,100038.88
2023-04-09T04:32:27.280Z,100037.91
2023-04-09T04:34:56.224Z,100046.50
2023-04-09T04:37:26.695Z,100043.84
2023-04-09T04:39:58.168Z,100050.81
2023-04-09T04:42:25.801Z,100048.81
2023-04-09T04:44:53.279Z,100044.34
2023-04-09T04:47:36.168Z,100048.47
2023-04-09T04:50:06.441Z,100045.84
2023-04-09T04:52:42.474Z,100042.16
2023-04-09T04:55:10.448Z,100048.13
2023-04-09T04:57:37.598Z,100050.75
2023-04-09T05:00:05.822Z,100046.66
2023-04-09T05:02:32.992Z,100050.13
2023-04-09T05:05:20.831Z,100062.38
2023-04-09T05:07:52.742Z,100062.38
2023-04-09T05:10:21.398Z,100055.91
2023-04-09T05:12:48.596Z,100055.72
2023-04-09T05:15:24.654Z,100061.84
2023-04-09T05:17:51.864Z,100058.88
2023-04-09T05:20:19.561Z,100056.03
2023-04-09T05:22:53.719Z,100057.34
2023-04-09T05:25:28.272Z,100061.31
2023-04-09T05:27:56.368Z,100059.31
2023-04-09T05:30:25.436Z,100068.91
2023-04-09T05:32:54.640Z,100070.41
2023-04-09T05:35:26.298Z,100067.38
2023-04-09T05:37:53.619Z,100071.16
2023-04-09T05:40:21.734Z,100065.88
2023-04-09T05:42:49.770Z,100072.50
2023-04-09T05:45:25.067Z,100066.81
2023-04-09T05:47:53.818Z,100070.94
2023-04-09T05:50:23.593Z,100076.75
2023-04-09T05:52:54.278Z,100077.38
2023-04-09T05:55:28.728Z,100075.22
2023-04-09T05:58:00.670Z,100077.34
2023-04-09T06:00:28.809Z,100079.47
2023-04-09T06:02:56.123Z,100079.94
2023-04-09T06:05:23.564Z,100088.22
2023-04-09T06:07:51.899Z,100078.09
2023-04-09T06:10:19.559Z,100090.81
2023-04-09T06:12:48.395Z,100086.81
2023-04-09T06:15:16.064Z,100095.91
2023-04-09T06:17:43.153Z,100086.59
2023-04-09T06:20:11.168Z,100084.06
2023-04-09T06:22:38.327Z,100081.50
2023-04-09T06:25:06.492Z,100083.28
2023-04-09T06:27:33.651Z,100087.50
2023-04-09T06:30:01.113Z,100086.81
2023-04-09T06:32:28.310Z,100089.19
2023-04-09T06:34:55.814Z,100093.25
2023-04-09T06:37:22.817Z,100090.53
2023-04-09T06:40:00.632Z,100087.78
2023-04-09T06:42:28.625Z,100096.16
2023-04-09T06:45:08.435Z,100084.50
2023-04-09T06:47:36.253Z,100090.84
2023-04-09T06:50:04.611Z,100096.88
2023-04-09T06:52:31.707Z,100095.75
2023-04-09T06:54:59.094Z,100092.00
2023-04-09T06:57:27.229Z,100093.75
2023-04-09T06:59:54.605Z,100097.00
2023-04-09T07:02:22.000Z,100099.97
2023-04-09T07:04:49.718Z,100102.91
2023-04-09T07:07:17.054Z,100108.97
2023-04-09T07:09:45.398Z,100101.09
2023-04-09T07:12:12.455Z,100097.69
2023-04-09T07:14:39.954Z,100102.69
2023-04-09T07:17:07.339Z,100096.69
2023-04-09T07:19:34.595Z,100094.78
2023-04-09T07:22:01.813Z,100097.34
2023-04-09T07:24:29.171Z,100099.94
2023-04-09T07:26:56.458Z,100096.19
2023-04-09T07:29:23.805Z,100090.97
2023-04-09T07:31:51.177Z,100088.84
2023-04-09T07:34:18.512Z,100084.59
2023-04-09T07:36:45.670Z,100084.47
2023-04-09T07:39:13.012Z,100085.78
2023-04-09T07:41:40.624Z,100085.38
2023-04-09T07:44:08.497Z,100087.84
2023-04-09T07:46:35.968Z,100087.06
2023-04-09T07:49:03.725Z,100091.97
2023-04-09T07:51:31.226Z,100083.72
2023-04-09T07:53:58.691Z,100075.06
2023-04-09T07:56:25.861Z,100077.88
2023-04-09T07:58:53.482Z,100080.53
2023-04-09T08:01:24.592Z,100080.63
2023-04-09T08:03:52.259Z,100093.41
2023-04-09T08:06:19.688Z,100087.91
2023-04-09T08:08:47.050Z,100086.13
2023-04-09T08:11:14.125Z,100082.81
2023-04-09T08:13:41.667Z,100075.53
2023-04-09T08:16:08.837Z,100082.16
2023-04-09T08:18:36.188Z,100078.81
2023-04-09T08:21:05.621Z,100077.06
2023-04-09T08:23:33.183Z,100072.41
2023-04-09T08:26:00.299Z,100064.75
2023-04-09T08:28:27.709Z,100066.56
2023-04-09T08:30:54.931Z,100063.59
2023-04-09T08:33:22.493Z,100063.44
2023-04-09T08:35:49.728Z,100061.34
2023-04-09T08:38:17.139Z,100061.34
2023-04-09T08:40:44.247Z,100064.63
2023-04-09T08:43:19.291Z,100074.34
2023-04-09T08:45:47.371Z,100076.56
2023-04-09T08:48:17.015Z,100068.06
2023-04-09T08:50:46.363Z,100068.63
2023-04-09T08:53:15.535Z,100071.81
2023-04-09T08:55:46.570Z,100069.84
2023-04-09T08:58:14.491Z,100072.53
2023-04-09T09:00:41.508Z,100066.63
2023-04-09T09:03:15.158Z,100072.59
2023-04-09T09:05:46.448Z,100068.81
2023-04-09T09:08:26.732Z,100074.00
2023-04-09T09:10:53.891Z,100066.28
2023-04-09T09:13:28.537Z,100065.22
2023-04-09T09:16:14.354Z,100062.84
2023-04-09T09:18:45.286Z,100062.22
2023-04-09T09:21:15.664Z,100062.59
2023-04-09T09:23:43.546Z,100060.97
2023-04-09T09:26:20.608Z,100064.25
2023-04-09T09:28:49.638Z,100064.78
2023-04-09T09:31:20.366Z,100067.72
2023-04-09T09:33:48.533Z,100067.91
2023-04-09T09:36:23.175Z,100060.78
2023-04-09T09:38:57.159Z,100060.50
2023-04-09T09:41:25.899Z,100052.97
2023-04-09T09:43:53.144Z,100059.88
2023-04-09T09:46:22.589Z,100063.06
2023-04-09T09:48:50.053Z,100060.53
2023-04-09T09:51:19.583Z,100054.50
2023-04-09T09:53:51.915Z,100055.97
2023-04-09T09:56:32.322Z,100049.00
2023-04-09T09:59:23.817Z,100052.06
2023-04-09T10:02:02.298Z,100054.00
2023-04-09T10:04:35.197Z,100050.66
2023-04-09T10:07:07.280Z,100041.91
2023-04-09T10:09:52.015Z,100048.44
2023-04-09T10:12:23.852Z,100040.59
2023-04-09T10:14:56.341Z,100046.19
2023-04-09T10:17:23.880Z,100040.94
2023-04-09T10:20:19.757Z,100042.59
2023-04-09T10:22:51.709Z,100037.00
2023-04-09T10:25:19.419Z,100039.72
2023-04-09T10:27:59.985Z,100028.81
2023-04-09T10:30:34.821Z,100035.69
2023-04-09T10:33:16.597Z,100029.31
2023-04-09T10:35:47.188Z,100026.31
2023-04-09T10:38:15.588Z,100016.22
2023-04-09T10:40:49.627Z,100021.25
2023-04-09T10:43:22.122Z,100018.16
2023-04-09T10:45:54.411Z,100017.16
2023-04-09T10:48:26.086Z,100012.88
2023-04-09T10:50:53.154Z,100012.75
2023-04-09T10:53:26.142Z,100020.19
2023-04-09T10:55:56.192Z,100011.59
2023-04-09T10:58:23.533Z,100009.38
2023-04-09T11:00:51.641Z,100004.81
2023-04-09T11:03:32.768Z,100002.03
2023-04-09T11:06:09.072Z,100013.00
2023-04-09T11:08:38.629Z,100012.69
2023-04-09T11:11:06.392Z,100011.25
2023-04-09T11:13:34.491Z,100009.88
2023-04-09T11:16:06.545Z,100014.88
2023-04-09T11:18:36.965Z,100002.31
2023-04-09T11:21:04.498Z,100013.44
2023-04-09T11:23:33.283Z,100007.41
2023-04-09T11:26:02.118Z,100015.41
2023-04-09T11:28:29.469Z,100013.72
2023-04-09T11:30:56.591Z,100017.06
2023-04-09T11:33:32.117Z,100011.16
2023-04-09T11:35:59.417Z,100014.16
2023-04-09T11:38:26.849Z,100019.97
2023-04-09T11:40:58.094Z,100017.19
2023-04-09T11:43:25.918Z,100019.78
2023-04-09T11:45:53.307Z,100019.69
2023-04-09T11:48:23.347Z,100021.22
2023-04-09T11:50:51.285Z,100025.47
2023-04-09T11:53:24.449Z,100028.06
2023-04-09T11:55:53.443Z,100021.53
2023-04-09T11:58:25.595Z,100016.13
2023-04-09T12:00:55.424Z,100023.66
2023-04-09T12:03:33.416Z,100025.44
2023-04-09T12:06:03.368Z,100019.22
2023-04-09T12:08:31.777Z,100023.66
2023-04-09T12:11:16.126Z,100023.25
2023-04-09T12:13:45.591Z,100032.25
2023-04-09T12:16:14.067Z,100030.38
2023-04-09T12:18:41.809Z,100033.16
2023-04-09T12:21:09.012Z,100026.69
2023-04-09T12:23:36.476Z,100035.13
2023-04-09T12:26:04.203Z,100033.34
2023-04-09T12:28:31.504Z,100029.34
2023-04-09T12:30:59.499Z,100020.75
2023-04-09T12:33:27.289Z,100028.63
2023-04-09T12:35:54.371Z,100019.72
2023-04-09T12:38:21.705Z,100024.38
2023-04-09T12:40:48.827Z,100023.88
2023-04-09T12:43:16.543Z,100018.59
2023-04-09T12:45:43.677Z,100022.94
2023-04-09T12:48:11.715Z,100016.94
2023-04-09T12:50:39.052Z,100016.13
2023-04-09T12:53:06.515Z,100018.00
2023-04-09T12:55:33.774Z,100009.66
2023-04-09T12:58:02.483Z,100015.06
2023-04-09T13:00:31.091Z,100014.25
2023-04-09T13:02:58.884Z,100004.53
2023-04-09T13:05:26.148Z,100007.22
2023-04-09T13:07:53.816Z,100010.97
2023-04-09T13:10:20.946Z,100005.56
2023-04-09T13:12:48.437Z,99999.13
2023-04-09T13:15:15.569Z,100003.44
2023-04-09T13:17:43.129Z,100005.19
2023-04-09T13:20:10.599Z,100003.63
2023-04-09T13:22:38.034Z,100003.13
2023-04-09T13:25:05.775Z,100002.66
2023-04-09T13:27:33.274Z,100002.97
2023-04-09T13:30:00.336Z,99995.47
2023-04-09T13:32:27.809Z,99992.81
2023-04-09T13:34:55.712Z,99992.13
2023-04-09T13:37:23.286Z,99991.88
2023-04-09T13:39:51.355Z,99995.13
2023-04-09T13:42:19.040Z,99995.97
2023-04-09T13:44:46.606Z,99995.00
2023-04-09T13:47:16.232Z,100001.50
2023-04-09T13:49:43.983Z,99999.38
2023-04-09T13:52:13.462Z,99990.72
2023-04-09T13:54:40.889Z,99996.13
2023-04-09T13:57:08.392Z,99999.06
2023-04-09T13:59:36.055Z,99989.59
2023-04-09T14:02:04.071Z,99987.94
2023-04-09T14:04:31.522Z,99990.09
2023-04-09T14:06:59.024Z,99992.53
2023-04-09T14:09:26.451Z,99993.34
2023-04-09T14:11:55.084Z,99996.13
2023-04-09T14:14:22.261Z,99986.44
2023-04-09T14:16:50.412Z,99991.84
2023-04-09T14:19:17.777Z,99991.03
2023-04-09T14:21:45.269Z,99972.97
2023-04-09T14:24:12.418Z,99982.22
2023-04-09T14:26:39.735Z,99981.19
2023-04-09T14:29:06.832Z,99978.06
2023-04-09T14:31:34.208Z,99966.34
2023-04-09T14:34:01.336Z,99969.66
2023-04-09T14:36:28.648Z,99971.63
2023-04-09T14:38:57.851Z,99968.66
2023-04-09T14:41:26.165Z,99968.16
2023-04-09T14:43:53.286Z,99963.06
2023-04-09T14:46:22.116Z,99963.88
2023-04-09T14:48:49.349Z,99959.25
2023-04-09T14:51:16.692Z,99962.16
2023-04-09T14:53:43.844Z,99965.59
2023-04-09T14:56:11.217Z,99961.56
2023-04-09T14:58:38.375Z,99960.50
2023-04-09T15:01:06.327Z,99962.44
2023-04-09T15:03:33.572Z,99956.88
2023-04-09T15:06:01.327Z,99958.25
2023-04-09T15:08:28.556Z,99954.16
2023-04-09T15:10:55.910Z,99952.53
2023-04-09T15:13:23.995Z,99949.88
2023-04-09T15:15:51.476Z,99944.09
2023-04-09T15:18:19.981Z,99945.78
2023-04-09T15:20:49.080Z,99952.50
2023-04-09T15:23:16.283Z,99952.22
2023-04-09T15:25:43.747Z,99951.63
2023-04-09T15:28:10.914Z,99952.72
2023-04-09T15:30:38.417Z,99953.22
2023-04-09T15:33:06.191Z,99947.81
2023-04-09T15:35:35.308Z,99958.94
2023-04-09T15:38:02.472Z,99948.91
2023-04-09T15:40:31.018Z,99947.41
2023-04-09T15:42:58.192Z,99953.38
2023-04-09T15:45:26.904Z,99945.47
2023-04-09T15:47:54.461Z,99950.50
2023-04-09T15:50:21.938Z,99945.88
2023-04-09T15:52:49.106Z,99951.47
2023-04-09T15:55:16.723Z,99953.34
2023-04-09T15:57:46.782Z,99952.47
2023-04-09T16:00:15.587Z,99949.69
2023-04-09T16:02:42.743Z,99950.75
2023-04-09T16:05:10.571Z,99952.91
2023-04-09T16:07:39.347Z,99962.00
2023-04-09T16:10:07.732Z,99957.59
2023-04-09T16:12:34.754Z,99957.31
2023-04-09T16:15:02.851Z,99954.75
2023-04-09T16:17:30.838Z,99954.69
2023-04-09T16:19:58.286Z,99958.97
2023-04-09T16:22:25.582Z,99970.75
2023-04-09T16:24:52.894Z,99965.53
2023-04-09T16:27:20.348Z,99971.94
2023-04-09T16:29:48.211Z,99968.31
2023-04-09T16:32:15.431Z,99976.31
2023-04-09T16:34:43.003Z,99965.44
2023-04-09T16:37:10.233Z,99974.50
2023-04-09T16:39:37.737Z,99971.75
2023-04-09T16:42:04.959Z,99972.72
2023-04-09T16:44:32.322Z,99973.69
2023-04-09T16:46:59.554Z,99972.00
2023-04-09T16:49:27.015Z,99976.47
2023-04-09T16:51:55.060Z,99980.41
2023-04-09T16:54:22.572Z,99984.06
2023-04-09T16:56:49.760Z,99971.56
2023-04-09T16:59:21.080Z,99975.25
2023-04-09T17:01:49.162Z,99980.53
2023-04-09T17:04:16.979Z,99981.50
2023-04-09T17:06:44.177Z,99988.66
2023-04-09T17:09:11.671Z,99995.84
2023-04-09T17:11:38.961Z,99988.72
2023-04-09T17:14:06.516Z,99989.69
2023-04-09T17:16:33.909Z,99996.56
2023-04-09T17:19:03.998Z,99993.19
2023-04-09T17:21:31.341Z,99995.53
2023-04-09T17:23:59.639Z,99998.94
2023-04-09T17:26:26.854Z,99999.91
2023-04-09T17:28:54.749Z,99992.75
2023-04-09T17:31:24.087Z,99999.13
2023-04-09T17:33:52.292Z,100002.75
2023-04-09T17:36:21.086Z,100003.69
2023-04-09T17:38:49.944Z,100004.63
2023-04-09T17:41:17.361Z,100005.59
2023-04-09T17:43:44.690Z,100013.56
2023-04-09T17:46:12.339Z,100009.91
2023-04-09T17:48:40.842Z,100017.03
2023-04-09T17:51:07.993Z,100015.88
2023-04-09T17:53:35.315Z,100023.84
2023-04-09T17:56:03.888Z,100023.72
2023-04-09T17:58:31.623Z,100030.84
2023-04-09T18:00:59.768Z,100028.84
2023-04-09T18:03:27.598Z,100034.09
2023-04-09T18:05:54.946Z,100035.00
2023-04-09T18:08:22.500Z,100042.94
2023-04-09T18:11:08.862Z,100041.75
2023-04-09T18:13:39.554Z,100048.06
2023-04-09T18:16:12.940Z,100045.00
2023-04-09T18:18:41.344Z,100047.56
2023-04-09T18:21:08.598Z,100051.97
2023-04-09T18:23:36.247Z,100057.00
2023-04-09T18:26:03.583Z,100059.56
2023-04-09T18:28:31.203Z,100058.59
2023-04-09T18:30:58.863Z,100057.88
2023-04-09T18:33:27.026Z,100057.72
2023-04-09T18:35:54.302Z,100064.00
2023-04-09T18:38:21.845Z,100061.19
2023-04-09T18:40:49.196Z,100064.53
2023-04-09T18:43:16.607Z,100064.63
2023-04-09T18:45:43.790Z,100071.72
2023-04-09T18:48:11.221Z,100076.72
2023-04-09T18:50:38.302Z,100069.56
2023-04-09T18:53:06.604Z,100079.31
2023-04-09T18:55:37.725Z,100068.66
2023-04-09T18:58:12.646Z,100077.41
2023-04-09T19:00:40.395Z,100077.00
2023-04-09T19:03:11.181Z,100092.38
2023-04-09T19:05:39.925Z,100087.28
2023-04-09T19:08:07.767Z,100093.50
2023-04-09T19:10:36.016Z,100096.03
2023-04-09T19:13:03.751Z,100094.25
2023-04-09T19:15:31.065Z,100098.41
2023-04-09T19:17:58.464Z,100099.28
2023-04-09T19:20:25.636Z,100099.72
2023-04-09T19:22:54.504Z,100110.06
2023-04-09T19:25:22.755Z,100102.69
2023-04-09T19:27:50.680Z,100094.03
2023-04-09T19:30:17.973Z,100105.19
2023-04-09T19:32:45.917Z,100109.34
2023-04-09T19:35:13.264Z,100111.88
2023-04-09T19:37:40.823Z,100102.63
2023-04-09T19:40:08.905Z,100105.75
2023-04-09T19:42:36.709Z,100104.50
2023-04-09T19:45:04.076Z,100103.09
2023-04-09T19:47:32.176Z,100103.75
2023-04-09T19:49:59.400Z,100101.47
2023-04-09T19:52:27.031Z,100105.06
2023-04-09T19:54:56.339Z,100103.84
2023-04-09T19:57:23.973Z,100107.16
2023-04-09T19:59:52.187Z,100102.63
2023-04-09T20:02:19.892Z,100112.13
2023-04-09T20:04:47.621Z,100106.59
2023-04-09T20:07:15.652Z,100105.59
2023-04-09T20:09:43.528Z,100107.06
2023-04-09T20:12:11.274Z,100113.69
2023-04-09T20:14:39.321Z,100104.41
2023-04-09T20:17:08.740Z,100110.22
2023-04-09T20:19:36.257Z,100116.00
2023-04-09T20:22:03.748Z,100111.88
2023-04-09T20:24:31.001Z,100109.84
2023-04-09T20:26:59.658Z,100113.97
2023-04-09T20:29:26.968Z,100118.94
2023-04-09T20:31:54.438Z,100119.75
2023-04-09T20:34:26.557Z,100116.88
2023-04-09T20:36:55.386Z,100116.28
2023-04-09T20:39:24.881Z,100118.56
2023-04-09T20:41:53.359Z,100116.53
2023-04-09T20:44:20.485Z,100117.78
2023-04-09T20:46:48.002Z,100116.53
2023-04-09T20:49:15.096Z,100111.59
2023-04-09T20:51:42.481Z,100113.06
2023-04-09T20:54:09.807Z,100118.81
2023-04-09T20:56:37.273Z,100119.25
2023-04-09T20:59:04.326Z,100120.69
2023-04-09T21:01:32.212Z,100121.09
2023-04-09T21:03:59.541Z,100126.06
2023-04-09T21:06:27.108Z,100124.03
2023-04-09T21:08:55.704Z,100121.53
2023-04-09T21:11:23.614Z,100131.84
2023-04-09T21:13:54.974Z,100126.91
2023-04-09T21:16:23.254Z,100120.34
2023-04-09T21:18:50.600Z,100120.75
2023-04-09T21:21:18.540Z,100122.38
2023-04-09T21:23:45.880Z,100113.75
2023-04-09T21:26:14.110Z,100118.69
2023-04-09T21:28:41.353Z,100125.72
2023-04-09T21:31:11.251Z,100125.28
2023-04-09T21:33:39.227Z,100124.06
2023-04-09T21:36:08.030Z,100127.13
2023-04-09T21:38:35.450Z,100127.94
2023-04-09T21:41:03.264Z,100124.06
2023-04-09T21:43:30.428Z,100136.19
2023-04-09T21:45:57.981Z,100135.75
2023-04-09T21:48:26.464Z,100132.69
2023-04-09T21:50:53.923Z,100137.22
2023-04-09T21:53:21.172Z,100131.44
2023-04-09T21:55:48.532Z,100146.25
2023-04-09T21:58:15.912Z,100142.13
2023-04-09T22:00:43.209Z,100136.34
2023-04-09T22:03:11.000Z,100138.81
2023-04-09T22:05:38.656Z,100141.47
2023-04-09T22:08:06.149Z,100144.59
2023-04-09T22:10:33.738Z,100144.97
2023-04-09T22:13:01.309Z,100144.38
2023-04-09T22:15:28.984Z,100141.88
2023-04-09T22:17:56.304Z,100146.59
2023-04-09T22:20:26.158Z,100156.06
2023-04-09T22:22:56.424Z,100152.72
2023-04-09T22:25:23.929Z,100154.78
2023-04-09T22:27:54.319Z,100150.63
2023-04-09T22:30:23.712Z,100149.41
2023-04-09T22:32:51.496Z,100150.84
2023-04-09T22:35:19.125Z,100151.25
2023-04-09T22:37:46.900Z,100151.00
2023-04-09T22:40:15.891Z,100147.91
2023-04-09T22:42:46.712Z,100156.75
2023-04-09T22:45:14.740Z,100149.13
2023-04-09T22:47:41.915Z,100148.50
2023-04-09T22:50:11.427Z,100148.09
2023-04-09T22:52:38.438Z,100146.00
2023-04-09T22:55:09.879Z,100144.78
2023-04-09T22:57:38.321Z,100146.81
2023-04-09T23:00:08.400Z,100141.88
2023-04-09T23:02:35.613Z,100145.97
2023-04-09T23:05:03.562Z,100146.34
2023-04-09T23:07:31.028Z,100152.09
2023-04-09T23:09:58.391Z,100146.34
2023-04-09T23:12:25.789Z,100145.91
2023-04-09T23:14:53.976Z,100145.47
2023-04-09T23:17:22.607Z,100144.03
2023-04-09T23:19:52.327Z,100154.47
2023-04-09T23:22:19.486Z,100142.53
2023-04-09T23:24:46.761Z,100157.66
2023-04-09T23:27:14.181Z,100144.09
2023-04-09T23:29:41.443Z,100149.00
2023-04-09T23:32:08.511Z,100146.28
2023-04-09T23:34:35.944Z,100146.50
2023-04-09T23:37:03.052Z,100146.88
2023-04-09T23:39:30.367Z,100142.75
2023-04-09T23:41:57.920Z,100143.13
2023-04-09T23:44:25.264Z,100143.56
2023-04-09T23:46:53.163Z,100137.56
2023-04-09T23:49:20.667Z,100136.94
2023-04-09T23:51:47.758Z,100136.94
2023-04-09T23:54:15.072Z,100138.34
2023-04-09T23:56:42.336Z,100136.91
2023-04-09T23:59:09.936Z,100138.09
